Time;durP1;ratioP1;P1;durP2;ratioP2;P2;SDS_P1;SDS_P2;PMS_P1;PMS_P2;Temp;Humidity;BMP_temperature;BMP_pressure;BME280_temperature;BME280_humidity;BME280_pressure;Samples;Min_cycle;Max_cycle;Signal;HPM_P1;HPM_P2
2023/05/11 00:02:04;;;;;;;13.23;7.97;;;14.30;99.90;;;;;;4842857;29;20081;-91
2023/05/11 00:04:30;;;;;;;12.88;8.57;;;14.30;99.90;;;;;;4843454;29;20057;-92
2023/05/11 00:06:55;;;;;;;17.45;8.23;;;14.30;99.90;;;;;;4844054;29;20053;-92
2023/05/11 00:09:21;;;;;;;15.40;7.97;;;14.30;99.90;;;;;;4843140;29;20186;-92
2023/05/11 00:11:47;;;;;;;14.80;7.90;;;14.30;99.90;;;;;;4843656;29;20443;-92
2023/05/11 00:14:12;;;;;;;17.80;8.02;;;14.30;99.90;;;;;;4842616;29;20499;-92
2023/05/11 00:16:38;;;;;;;14.05;8.20;;;14.20;99.90;;;;;;4843957;29;20049;-91
2023/05/11 00:19:04;;;;;;;15.80;7.68;;;14.30;99.90;;;;;;4842943;29;20046;-91
2023/05/11 00:21:29;;;;;;;13.23;7.95;;;14.30;99.90;;;;;;4843400;29;20046;-92
2023/05/11 00:23:55;;;;;;;19.88;9.02;;;14.20;99.90;;;;;;4843592;29;20361;-92
2023/05/11 00:26:21;;;;;;;16.05;8.35;;;14.20;99.90;;;;;;4843308;29;20046;-92
2023/05/11 00:28:47;;;;;;;16.98;8.55;;;14.20;99.90;;;;;;4842388;29;20060;-92
2023/05/11 00:31:12;;;;;;;15.20;8.30;;;14.20;99.90;;;;;;4842999;29;20121;-91
2023/05/11 00:33:38;;;;;;;16.50;9.07;;;14.20;99.90;;;;;;4842335;29;20050;-92
2023/05/11 00:36:04;;;;;;;17.75;8.65;;;14.20;99.90;;;;;;4842615;29;20506;-92
2023/05/11 00:38:31;;;;;;;15.80;9.27;;;14.20;99.90;;;;;;4843022;29;20054;-92
2023/05/11 00:40:57;;;;;;;16.40;9.00;;;14.20;99.90;;;;;;4843981;29;20114;-93
2023/05/11 00:43:22;;;;;;;20.05;9.13;;;14.20;99.90;;;;;;4843645;29;20046;-92
2023/05/11 00:45:48;;;;;;;23.77;9.73;;;14.20;99.90;;;;;;4842498;29;20053;-92
2023/05/11 00:48:15;;;;;;;18.58;8.80;;;14.20;99.90;;;;;;4842437;29;20141;-92
2023/05/11 00:50:41;;;;;;;19.95;8.95;;;14.20;99.90;;;;;;4845479;29;20042;-92
2023/05/11 00:53:07;;;;;;;19.92;7.97;;;14.20;99.90;;;;;;4840719;29;20050;-92
2023/05/11 00:55:33;;;;;;;17.88;9.38;;;14.20;99.90;;;;;;4850697;29;20049;-92
2023/05/11 00:57:59;;;;;;;18.30;9.65;;;14.10;99.90;;;;;;4848549;29;20046;-92
2023/05/11 01:00:25;;;;;;;18.73;9.73;;;14.20;99.90;;;;;;4875667;29;20059;-91
2023/05/11 01:02:51;;;;;;;19.58;9.48;;;14.10;99.90;;;;;;4860503;29;20489;-92
2023/05/11 01:05:17;;;;;;;16.17;9.45;;;14.10;99.90;;;;;;4857057;29;20046;-92
2023/05/11 01:08:11;;;;;;;16.83;9.23;;;14.10;99.90;;;;;;4841716;29;20443;-92
2023/05/11 01:10:57;;;;;;;17.02;9.55;;;14.00;99.90;;;;;;4841773;29;20053;-92
2023/05/11 01:13:32;;;;;;;16.15;8.75;;;14.00;99.90;;;;;;4842705;29;20042;-93
2023/05/11 01:16:03;;;;;;;16.15;9.73;;;14.10;99.90;;;;;;4843146;29;20046;-92
2023/05/11 01:18:38;;;;;;;19.77;9.93;;;14.00;99.90;;;;;;4842483;29;20046;-93
2023/05/11 01:21:05;;;;;;;18.77;10.27;;;14.00;99.90;;;;;;4843221;29;20086;-94
2023/05/11 01:23:36;;;;;;;17.52;10.25;;;14.00;99.90;;;;;;4843076;29;20046;-92
2023/05/11 01:26:32;;;;;;;15.13;10.02;;;14.00;99.90;;;;;;4833144;29;20062;-92
2023/05/11 01:29:19;;;;;;;20.77;10.15;;;13.90;99.90;;;;;;4824128;29;20444;-93
2023/05/11 01:31:49;;;;;;;17.13;10.73;;;14.00;99.90;;;;;;4824827;29;20050;-92
2023/05/11 01:34:22;;;;;;;17.90;10.18;;;13.90;99.90;;;;;;4835297;29;20058;-92
2023/05/11 01:36:59;;;;;;;21.40;10.98;;;13.90;99.90;;;;;;4842824;29;20606;-94
2023/05/11 01:39:34;;;;;;;17.15;10.15;;;14.00;99.90;;;;;;4841228;29;20137;-93
2023/05/11 01:42:06;;;;;;;22.27;10.77;;;13.90;99.90;;;;;;4843230;29;20042;-92
2023/05/11 01:44:34;;;;;;;20.08;10.75;;;13.90;99.90;;;;;;4841326;29;20046;-91
2023/05/11 01:47:01;;;;;;;16.23;10.35;;;14.00;99.90;;;;;;4841708;29;20053;-91
2023/05/11 01:49:31;;;;;;;19.45;13.02;;;13.90;99.90;;;;;;4842931;29;20098;-92
2023/05/11 01:52:00;;;;;;;21.70;10.73;;;13.90;99.90;;;;;;4841563;29;20050;-92
2023/05/11 01:54:27;;;;;;;18.48;11.23;;;13.90;99.90;;;;;;4841564;29;20042;-92
2023/05/11 01:56:55;;;;;;;17.25;10.55;;;13.90;99.90;;;;;;4841357;29;20050;-92
2023/05/11 01:59:23;;;;;;;17.98;11.02;;;13.90;99.90;;;;;;4840645;29;20054;-92
2023/05/11 02:01:48;;;;;;;15.95;11.35;;;13.80;99.90;;;;;;4842138;29;20046;-93
2023/05/11 02:04:16;;;;;;;18.38;11.10;;;13.90;99.90;;;;;;4842680;29;20133;-92
2023/05/11 02:06:43;;;;;;;20.45;11.63;;;13.80;99.90;;;;;;4840491;29;20071;-92
2023/05/11 02:09:11;;;;;;;18.42;11.82;;;13.80;99.90;;;;;;4842576;29;20053;-93
2023/05/11 02:11:37;;;;;;;17.80;11.15;;;13.80;99.90;;;;;;4854241;29;20084;-92
2023/05/11 02:14:05;;;;;;;17.05;11.38;;;13.80;99.90;;;;;;4858767;29;20057;-94
2023/05/11 02:16:32;;;;;;;18.83;11.50;;;13.80;99.90;;;;;;4848645;29;20129;-93
2023/05/11 02:18:58;;;;;;;19.70;11.60;;;13.80;99.90;;;;;;4841999;29;20444;-93
2023/05/11 02:21:26;;;;;;;19.55;11.93;;;13.80;99.90;;;;;;4871994;29;20045;-92
2023/05/11 02:23:53;;;;;;;18.50;11.13;;;13.80;99.90;;;;;;4843882;29;20447;-93
2023/05/11 02:26:19;;;;;;;15.45;11.13;;;13.70;99.90;;;;;;4854914;29;20098;-93
2023/05/11 02:28:45;;;;;;;21.55;13.00;;;13.70;99.90;;;;;;4844798;29;20132;-93
2023/05/11 02:31:34;;;;;;;21.25;12.30;;;13.70;99.90;;;;;;4846143;29;20546;-93
2023/05/11 02:34:06;;;;;;;17.92;12.02;;;13.70;99.90;;;;;;4844791;29;20053;-93
2023/05/11 02:36:34;;;;;;;17.63;11.68;;;13.70;99.90;;;;;;4851778;29;20061;-93
2023/05/11 02:39:07;;;;;;;16.08;11.30;;;13.70;99.90;;;;;;4844971;29;20415;-92
2023/05/11 02:41:40;;;;;;;16.42;11.23;;;13.70;99.90;;;;;;4860712;29;20063;-93
2023/05/11 02:44:10;;;;;;;21.38;13.18;;;13.60;99.90;;;;;;4846190;29;20109;-93
2023/05/11 02:46:37;;;;;;;16.13;11.63;;;13.60;99.90;;;;;;4855592;29;20084;-93
2023/05/11 02:49:06;;;;;;;19.83;12.88;;;13.60;99.90;;;;;;4849302;29;20060;-92
2023/05/11 02:51:36;;;;;;;18.88;12.07;;;13.70;99.90;;;;;;4845424;29;20042;-93
2023/05/11 02:54:04;;;;;;;18.75;12.40;;;13.60;99.90;;;;;;4862870;29;20052;-94
2023/05/11 02:56:30;;;;;;;19.60;12.43;;;13.60;99.90;;;;;;4863240;29;20494;-92
2023/05/11 02:58:56;;;;;;;22.73;13.20;;;13.60;99.90;;;;;;4846274;29;20088;-92
2023/05/11 03:01:21;;;;;;;19.75;13.07;;;13.60;99.90;;;;;;4852691;29;20085;-92
2023/05/11 03:03:47;;;;;;;20.15;13.00;;;13.60;99.90;;;;;;4861338;29;20402;-93
2023/05/11 03:06:13;;;;;;;17.23;12.07;;;13.50;99.90;;;;;;4848123;29;20100;-93
2023/05/11 03:08:40;;;;;;;20.73;12.50;;;13.60;99.90;;;;;;4858204;29;20049;-92
2023/05/11 03:11:07;;;;;;;20.55;12.70;;;13.50;99.90;;;;;;4862449;29;20057;-92
2023/05/11 03:13:33;;;;;;;19.95;12.60;;;13.50;99.90;;;;;;4863107;29;20049;-92
2023/05/11 03:16:01;;;;;;;18.08;12.02;;;13.50;99.90;;;;;;4862000;29;20047;-92
2023/05/11 03:18:28;;;;;;;19.35;12.68;;;13.60;99.90;;;;;;4859063;29;20049;-93
2023/05/11 03:20:56;;;;;;;20.80;12.40;;;13.50;99.90;;;;;;4857739;29;20406;-92
2023/05/11 03:23:22;;;;;;;19.02;12.32;;;13.50;99.90;;;;;;4851511;29;20482;-92
2023/05/11 03:25:48;;;;;;;18.05;12.13;;;13.50;99.90;;;;;;4843066;29;20045;-93
2023/05/11 03:28:14;;;;;;;16.60;11.82;;;13.50;99.90;;;;;;4854099;29;20448;-93
2023/05/11 03:30:43;;;;;;;19.65;12.75;;;13.50;99.90;;;;;;4860841;29;20041;-92
2023/05/11 03:33:09;;;;;;;15.73;11.80;;;13.40;99.90;;;;;;4861881;29;20081;-92
2023/05/11 03:35:36;;;;;;;16.90;12.27;;;13.50;99.90;;;;;;4849514;29;20153;-92
2023/05/11 03:38:04;;;;;;;21.20;12.68;;;13.50;99.90;;;;;;4844136;29;20513;-92
2023/05/11 03:40:33;;;;;;;16.65;11.48;;;13.40;99.90;;;;;;4844916;29;20041;-92
2023/05/11 03:43:02;;;;;;;16.20;11.57;;;13.40;99.90;;;;;;4845214;29;20046;-93
2023/05/11 03:45:30;;;;;;;16.58;11.48;;;13.40;99.90;;;;;;4842707;29;20042;-91
2023/05/11 03:47:56;;;;;;;16.55;11.65;;;13.40;99.90;;;;;;4837412;29;20052;-91
2023/05/11 03:50:22;;;;;;;19.33;12.10;;;13.40;99.90;;;;;;4846185;29;20086;-92
2023/05/11 03:52:48;;;;;;;16.75;11.07;;;13.40;99.90;;;;;;4849404;29;20078;-92
2023/05/11 03:55:15;;;;;;;16.48;11.65;;;13.40;99.90;;;;;;4857706;29;20167;-92
2023/05/11 03:57:40;;;;;;;16.27;11.00;;;13.40;99.90;;;;;;4859204;29;20050;-91
2023/05/11 04:00:09;;;;;;;17.42;11.52;;;13.40;99.90;;;;;;4862054;29;20138;-91
2023/05/11 04:02:35;;;;;;;18.30;12.30;;;13.40;99.90;;;;;;4859588;29;20044;-92
2023/05/11 04:05:09;;;;;;;16.63;11.10;;;13.30;99.90;;;;;;4840883;29;21564;-93
2023/05/11 04:07:38;;;;;;;17.33;11.38;;;13.40;99.90;;;;;;4848996;29;20475;-90
2023/05/11 04:10:05;;;;;;;17.73;11.30;;;13.30;99.90;;;;;;4860664;29;20397;-91
2023/05/11 04:12:33;;;;;;;17.25;11.40;;;13.30;99.90;;;;;;4842656;29;20102;-90
2023/05/11 04:14:59;;;;;;;22.00;15.23;;;13.30;99.90;;;;;;4876533;29;20173;-90
2023/05/11 04:17:24;;;;;;;15.52;11.07;;;13.30;99.90;;;;;;4856782;29;20033;-91
2023/05/11 04:19:50;;;;;;;17.67;12.32;;;13.30;99.90;;;;;;4844656;29;20475;-92
2023/05/11 04:22:16;;;;;;;17.27;12.38;;;13.30;99.90;;;;;;4862418;29;20518;-92
2023/05/11 04:24:42;;;;;;;18.90;12.02;;;13.30;99.90;;;;;;4860921;29;20050;-89
2023/05/11 04:27:07;;;;;;;17.65;11.43;;;13.30;99.90;;;;;;4856331;29;20049;-93
2023/05/11 04:29:33;;;;;;;19.88;12.38;;;13.20;99.90;;;;;;4861181;29;20042;-94
2023/05/11 04:31:59;;;;;;;17.70;11.98;;;13.30;99.90;;;;;;4857224;29;20098;-92
2023/05/11 04:34:25;;;;;;;18.15;12.30;;;13.20;99.90;;;;;;4852249;29;20056;-93
2023/05/11 04:36:50;;;;;;;19.75;12.73;;;13.30;99.90;;;;;;4860298;29;20041;-93
2023/05/11 04:39:16;;;;;;;19.20;13.23;;;13.30;99.90;;;;;;4847928;29;20057;-93
2023/05/11 04:41:45;;;;;;;20.42;12.45;;;13.20;99.90;;;;;;4843573;29;20052;-92
2023/05/11 04:44:11;;;;;;;18.02;11.38;;;13.20;99.90;;;;;;4842999;29;20102;-92
2023/05/11 04:46:40;;;;;;;18.13;13.00;;;13.20;99.90;;;;;;4839701;24;20054;-93
2023/05/11 04:49:25;;;;;;;17.48;12.35;;;13.30;99.90;;;;;;4823662;29;20108;-93
2023/05/11 04:51:54;;;;;;;17.90;12.48;;;13.20;99.90;;;;;;4825844;29;20049;-93
2023/05/11 04:54:22;;;;;;;21.90;12.32;;;13.20;99.90;;;;;;4825823;29;20082;-93
2023/05/11 04:57:01;;;;;;;;;;;;;;;;;;;;;
2023/05/11 04:59:36;;;;;;;17.40;12.20;;;13.20;99.90;;;;;;4819929;29;20058;-93
2023/05/11 05:02:01;;;;;;;19.63;12.20;;;13.20;99.90;;;;;;4825210;29;20127;-93
2023/05/11 05:04:27;;;;;;;17.50;12.45;;;13.20;99.90;;;;;;4826296;29;20538;-93
2023/05/11 05:06:53;;;;;;;19.02;12.43;;;13.20;99.90;;;;;;4824391;29;20051;-92
2023/05/11 05:09:19;;;;;;;17.85;12.55;;;13.20;99.90;;;;;;4824437;29;20054;-92
2023/05/11 05:11:45;;;;;;;21.25;12.30;;;13.20;99.90;;;;;;4823964;29;20042;-92
2023/05/11 05:14:10;;;;;;;16.52;12.05;;;13.20;99.90;;;;;;4825703;29;20054;-93
2023/05/11 05:16:36;;;;;;;17.70;12.15;;;13.10;99.90;;;;;;4823482;29;20050;-92
2023/05/11 05:19:02;;;;;;;15.93;11.93;;;13.20;99.90;;;;;;4824168;29;20050;-93
2023/05/11 05:21:28;;;;;;;22.38;13.77;;;13.10;99.90;;;;;;4824150;29;20141;-93
2023/05/11 05:23:53;;;;;;;19.23;11.70;;;13.20;99.90;;;;;;4825032;29;20452;-93
2023/05/11 05:26:20;;;;;;;18.00;12.48;;;13.10;99.90;;;;;;4825400;29;20478;-92
2023/05/11 05:28:46;;;;;;;20.13;12.48;;;13.10;99.90;;;;;;4825271;29;20109;-92
2023/05/11 05:31:12;;;;;;;22.05;13.30;;;13.20;99.90;;;;;;4823588;29;20050;-93
2023/05/11 05:33:37;;;;;;;17.63;11.98;;;13.10;99.90;;;;;;4825085;29;20049;-92
2023/05/11 05:36:03;;;;;;;20.73;12.88;;;13.10;99.90;;;;;;4839391;29;20046;-92
2023/05/11 05:38:29;;;;;;;20.85;13.88;;;13.10;99.90;;;;;;4823845;29;20045;-92
2023/05/11 05:41:05;;;;;;;;;;;;;;;;;;;;;
2023/05/11 05:43:50;;;;;;;28.67;16.45;;;13.20;99.90;;;;;;4823142;29;20058;-93
2023/05/11 05:46:31;;;;;;;21.15;13.68;;;13.10;99.90;;;;;;4822411;29;20543;-92
2023/05/11 05:48:56;;;;;;;20.88;13.88;;;13.10;99.90;;;;;;4824995;29;20046;-93
2023/05/11 05:51:22;;;;;;;21.33;13.50;;;13.10;99.90;;;;;;4808973;29;20061;-93
2023/05/11 05:56:49;;;;;;;25.02;14.85;;;13.10;99.90;;;;;;4808604;29;20098;-93
2023/05/11 05:59:15;;;;;;;28.88;15.88;;;13.10;99.90;;;;;;4807875;29;20100;-92
2023/05/11 06:01:45;;;;;;;26.77;14.95;;;13.20;99.90;;;;;;4842081;29;20495;-91
2023/05/11 06:04:14;;;;;;;26.17;13.77;;;13.20;99.90;;;;;;4829315;29;20046;-91
2023/05/11 06:06:40;;;;;;;23.52;14.27;;;13.20;99.90;;;;;;4811817;29;20042;-91
2023/05/11 06:09:07;;;;;;;24.25;14.88;;;13.20;99.90;;;;;;4812324;29;20491;-92
2023/05/11 06:11:32;;;;;;;26.40;14.57;;;13.20;99.90;;;;;;4812466;29;20101;-92
2023/05/11 06:13:58;;;;;;;26.40;14.43;;;13.20;99.90;;;;;;4812594;29;20050;-92
2023/05/11 06:16:24;;;;;;;25.52;14.93;;;13.20;99.90;;;;;;4813010;29;20086;-92
2023/05/11 06:18:56;;;;;;;23.80;14.80;;;13.20;99.90;;;;;;4828591;29;20088;-92
2023/05/11 06:21:22;;;;;;;26.52;15.27;;;13.30;99.90;;;;;;4812157;29;20416;-92
2023/05/11 06:23:48;;;;;;;22.98;14.35;;;13.30;99.90;;;;;;4827651;29;20075;-91
2023/05/11 06:26:13;;;;;;;25.38;14.48;;;13.30;99.90;;;;;;4842142;29;20066;-93
2023/05/11 06:28:39;;;;;;;23.02;14.40;;;13.30;99.90;;;;;;4843169;29;20050;-92
2023/05/11 06:31:05;;;;;;;22.85;14.45;;;13.30;99.90;;;;;;4828451;29;20050;-92
2023/05/11 06:33:31;;;;;;;22.25;14.00;;;13.30;99.90;;;;;;4812187;29;20065;-92
2023/05/11 06:36:03;;;;;;;23.65;13.80;;;13.30;99.90;;;;;;4811662;29;20050;-93
2023/05/11 06:38:29;;;;;;;24.15;13.55;;;13.30;99.90;;;;;;4812581;29;20529;-93
2023/05/11 06:41:00;;;;;;;24.15;14.18;;;13.30;99.90;;;;;;4827336;29;20081;-93
2023/05/11 06:43:25;;;;;;;22.10;13.13;;;13.40;99.90;;;;;;4827638;29;20129;-92
2023/05/11 06:45:52;;;;;;;25.08;13.52;;;13.40;99.90;;;;;;4827486;29;20124;-92
2023/05/11 06:48:22;;;;;;;19.70;13.68;;;13.40;99.90;;;;;;4812497;29;20055;-92
2023/05/11 06:50:48;;;;;;;23.85;13.18;;;13.40;99.90;;;;;;4828062;29;20132;-91
2023/05/11 06:53:15;;;;;;;24.52;13.13;;;13.40;99.90;;;;;;4827792;29;20075;-91
2023/05/11 06:56:02;;;;;;;21.23;13.88;;;13.50;99.90;;;;;;4826986;29;20050;-92
2023/05/11 06:58:49;;;;;;;21.95;13.75;;;13.50;99.90;;;;;;4809799;29;20191;-92
2023/05/11 07:01:26;;;;;;;19.98;12.32;;;13.50;99.90;;;;;;4826829;29;20125;-92
2023/05/11 07:03:58;;;;;;;20.13;12.52;;;13.50;99.90;;;;;;4810241;29;20533;-91
2023/05/11 07:06:23;;;;;;;25.48;13.25;;;13.50;99.90;;;;;;4810961;29;20077;-92
2023/05/11 07:09:02;;;;;;;;;;;;;;;;;;;;;
2023/05/11 07:11:37;;;;;;;24.73;13.48;;;13.50;99.90;;;;;;4809701;29;20052;-92
2023/05/11 07:14:07;;;;;;;23.33;13.65;;;13.50;99.90;;;;;;4810976;29;20133;-92
2023/05/11 07:16:41;;;;;;;22.40;13.20;;;13.50;99.90;;;;;;4809878;29;20390;-91
2023/05/11 07:19:23;;;;;;;;;;;;;;;;;;;;;
2023/05/11 07:22:00;;;;;;;20.48;13.32;;;13.50;99.90;;;;;;4809062;29;20384;-92
2023/05/11 07:24:26;;;;;;;20.23;11.98;;;13.50;99.90;;;;;;4810706;29;20047;-92
2023/05/11 07:26:52;;;;;;;20.60;12.90;;;13.50;99.90;;;;;;4825864;29;20123;-92
2023/05/11 07:29:18;;;;;;;21.67;13.02;;;13.50;99.90;;;;;;4807604;29;20401;-92
2023/05/11 07:31:44;;;;;;;21.38;13.40;;;13.60;99.90;;;;;;4810735;29;20046;-92
2023/05/11 07:34:09;;;;;;;22.70;12.40;;;13.60;99.90;;;;;;4819515;29;20050;-92
2023/05/11 07:36:35;;;;;;;23.85;16.77;;;13.60;99.90;;;;;;4807460;29;20097;-93
2023/05/11 07:39:02;;;;;;;21.88;13.48;;;13.60;99.90;;;;;;4807573;29;20112;-92
2023/05/11 07:41:28;;;;;;;20.70;12.48;;;13.60;99.90;;;;;;4825500;29;20054;-92
2023/05/11 07:43:54;;;;;;;18.80;12.48;;;13.60;99.90;;;;;;4840287;29;20053;-92
2023/05/11 07:46:19;;;;;;;21.23;12.57;;;13.60;99.90;;;;;;4841004;29;20058;-92
2023/05/11 07:48:45;;;;;;;21.60;12.18;;;13.60;99.90;;;;;;4840592;29;20074;-93
2023/05/11 07:51:11;;;;;;;16.80;11.30;;;13.60;99.90;;;;;;4826567;29;20050;-92
2023/05/11 07:53:37;;;;;;;18.95;11.52;;;13.60;99.90;;;;;;4826468;29;20038;-93
2023/05/11 07:56:03;;;;;;;21.52;11.98;;;13.60;99.90;;;;;;4810658;29;20061;-93
2023/05/11 07:58:29;;;;;;;20.35;12.98;;;13.60;99.90;;;;;;4826444;29;20038;-92
2023/05/11 08:00:55;;;;;;;18.13;11.63;;;13.60;99.90;;;;;;4826591;29;20073;-93
2023/05/11 08:03:21;;;;;;;17.95;11.80;;;13.70;99.90;;;;;;4840911;29;20410;-90
2023/05/11 08:05:47;;;;;;;18.25;11.85;;;13.70;99.90;;;;;;4808580;29;20050;-90
2023/05/11 08:08:14;;;;;;;20.02;12.38;;;13.60;99.90;;;;;;4825738;29;20559;-90
2023/05/11 08:10:40;;;;;;;20.83;11.82;;;13.70;99.90;;;;;;4809181;29;20065;-88
2023/05/11 08:13:09;;;;;;;18.77;11.85;;;13.70;99.90;;;;;;4807897;29;20119;-92
2023/05/11 08:15:35;;;;;;;20.42;12.48;;;13.70;99.90;;;;;;4809754;29;20072;-90
2023/05/11 08:18:01;;;;;;;20.15;12.23;;;13.70;99.90;;;;;;4825704;29;20531;-90
2023/05/11 08:20:27;;;;;;;19.55;11.85;;;13.70;99.90;;;;;;4809995;29;20061;-90
2023/05/11 08:22:53;;;;;;;17.50;11.70;;;13.70;99.90;;;;;;4805313;29;20496;-89
2023/05/11 08:25:18;;;;;;;17.13;11.55;;;13.70;99.90;;;;;;4811718;29;20102;-90
2023/05/11 08:27:44;;;;;;;18.20;11.73;;;13.70;99.90;;;;;;4811624;29;20054;-91
2023/05/11 08:30:10;;;;;;;17.95;12.00;;;13.70;99.90;;;;;;4809429;29;20051;-90
2023/05/11 08:32:36;;;;;;;18.52;11.90;;;13.70;99.90;;;;;;4815811;29;20043;-91
2023/05/11 08:35:03;;;;;;;19.95;11.90;;;13.70;99.90;;;;;;4808038;29;20061;-91
2023/05/11 08:37:29;;;;;;;19.52;11.90;;;13.70;99.90;;;;;;4803061;29;20069;-91
2023/05/11 08:39:55;;;;;;;17.25;11.70;;;13.70;99.90;;;;;;4808292;29;20081;-91
2023/05/11 08:42:26;;;;;;;17.50;11.05;;;13.70;99.90;;;;;;4807808;29;20055;-92
2023/05/11 08:44:55;;;;;;;18.33;12.23;;;13.70;99.90;;;;;;4811818;29;20051;-91
2023/05/11 08:47:22;;;;;;;16.80;10.90;;;13.70;99.90;;;;;;4804707;29;20107;-91
2023/05/11 08:49:48;;;;;;;16.48;10.73;;;13.60;99.90;;;;;;4809074;29;20054;-90
2023/05/11 08:52:16;;;;;;;15.70;11.23;;;13.70;99.90;;;;;;4817787;29;20050;-92
2023/05/11 08:54:44;;;;;;;15.45;10.48;;;13.70;99.90;;;;;;4805459;29;20047;-93
2023/05/11 08:57:12;;;;;;;14.00;9.68;;;13.70;99.90;;;;;;4794576;29;20133;-91
2023/05/11 08:59:39;;;;;;;15.93;10.68;;;13.70;99.90;;;;;;4816522;29;20046;-91
2023/05/11 09:02:06;;;;;;;17.73;10.15;;;13.70;99.90;;;;;;4815490;29;20064;-92
2023/05/11 09:04:33;;;;;;;13.70;9.40;;;13.70;99.90;;;;;;4807248;29;20057;-92
2023/05/11 09:06:59;;;;;;;17.48;10.45;;;13.70;99.90;;;;;;4809447;29;20042;-91
2023/05/11 09:09:25;;;;;;;14.02;9.13;;;13.70;99.90;;;;;;4824397;29;20105;-91
2023/05/11 09:12:07;;;;;;;;;;;;;;;;;;;;;
2023/05/11 09:14:42;;;;;;;14.00;9.05;;;13.70;99.90;;;;;;4805897;29;20059;-91
2023/05/11 09:17:18;;;;;;;;;;;;;;;;;;;;;
2023/05/11 09:29:11;;;;;;;;;;;;;;;;;;;;;
2023/05/11 09:32:44;;;;;;;10.80;7.47;;;13.80;99.90;;;;;;4820533;29;20422;-89
2023/05/11 09:35:46;;;;;;;12.40;7.38;;;13.80;99.90;;;;;;4820700;29;20073;-88
2023/05/11 09:38:14;;;;;;;11.57;7.30;;;13.80;99.90;;;;;;4822419;29;20412;-89
2023/05/11 09:41:15;;;;;;;10.32;6.57;;;13.80;99.90;;;;;;4822876;29;20049;-89
2023/05/11 09:43:50;;;;;;;11.35;7.25;;;13.90;99.90;;;;;;4817283;29;20548;-88
2023/05/11 09:46:20;;;;;;;9.98;7.22;;;13.90;99.90;;;;;;4823820;29;20126;-92
2023/05/11 09:49:00;;;;;;;10.90;7.35;;;13.90;99.90;;;;;;4830681;24;20054;-89
2023/05/11 09:51:34;;;;;;;13.25;8.00;;;13.90;99.90;;;;;;4834410;29;20054;-90
2023/05/11 09:54:01;;;;;;;11.00;7.03;;;14.00;99.90;;;;;;4822862;29;20057;-90
2023/05/11 09:56:47;;;;;;;12.30;7.95;;;14.00;99.90;;;;;;4824062;29;20038;-90
2023/05/11 09:59:38;;;;;;;12.70;7.75;;;14.00;99.90;;;;;;4818913;29;20047;-90
2023/05/11 10:02:20;;;;;;;10.95;7.40;;;14.00;99.90;;;;;;4821548;29;20105;-89
2023/05/11 10:04:47;;;;;;;11.38;8.15;;;14.00;99.90;;;;;;4821467;29;20110;-89
2023/05/11 10:07:34;;;;;;;11.60;7.68;;;14.10;99.90;;;;;;4820475;29;20054;-90
2023/05/11 10:10:05;;;;;;;12.07;9.05;;;14.10;99.90;;;;;;4821186;29;20137;-89
2023/05/11 10:12:32;;;;;;;12.75;8.73;;;14.10;99.90;;;;;;4822017;29;20138;-91
2023/05/11 10:15:02;;;;;;;13.20;8.68;;;14.20;99.90;;;;;;4823679;29;20060;-89
2023/05/11 10:17:29;;;;;;;12.88;8.50;;;14.20;99.90;;;;;;4820802;29;20055;-88
2023/05/11 10:19:56;;;;;;;12.63;7.75;;;14.30;99.90;;;;;;4813994;29;20487;-90
2023/05/11 10:22:23;;;;;;;15.90;11.82;;;14.20;99.90;;;;;;4823167;29;20081;-91
2023/05/11 10:24:50;;;;;;;13.20;8.80;;;14.30;99.90;;;;;;4822019;29;20482;-90
2023/05/11 10:27:17;;;;;;;11.30;8.10;;;14.30;99.90;;;;;;4822894;29;20195;-91
2023/05/11 10:29:43;;;;;;;11.40;7.70;;;14.40;99.90;;;;;;4822433;29;20046;-90
2023/05/11 10:32:10;;;;;;;11.98;8.52;;;14.40;99.90;;;;;;4821781;29;20050;-88
2023/05/11 10:34:38;;;;;;;10.43;7.97;;;14.40;99.90;;;;;;4815021;29;20043;-89
2023/05/11 10:37:05;;;;;;;15.23;11.23;;;14.50;99.90;;;;;;4819974;29;20085;-89
2023/05/11 10:39:31;;;;;;;13.95;10.00;;;14.50;99.90;;;;;;4815868;29;20130;-91
2023/05/11 10:42:15;;;;;;;16.02;10.77;;;14.50;99.90;;;;;;4822693;29;20049;-91
2023/05/11 10:45:06;;;;;;;12.75;9.70;;;14.50;99.90;;;;;;4823824;29;20103;-91
2023/05/11 10:48:13;;;;;;;13.43;9.60;;;14.60;99.90;;;;;;4822482;29;20119;-91
2023/05/11 10:51:07;;;;;;;14.77;10.82;;;14.60;99.90;;;;;;4831671;29;20051;-90
2023/05/11 10:53:32;;;;;;;;;;;14.70;99.90;;;;;;4811544;29;20046;-91
2023/05/11 10:56:01;;;;;;;15.90;11.43;;;14.70;99.90;;;;;;4826409;29;20380;-89
2023/05/11 10:58:45;;;;;;;16.67;13.10;;;14.80;99.90;;;;;;4831621;29;20487;-88
2023/05/11 11:01:26;;;;;;;14.05;10.15;;;14.80;99.90;;;;;;4826382;29;20093;-91
2023/05/11 11:04:01;;;;;;;12.93;10.13;;;14.90;99.90;;;;;;4826328;29;20058;-91
2023/05/11 11:06:28;;;;;;;15.95;11.25;;;14.90;99.90;;;;;;4827526;29;20054;-91
2023/05/11 11:09:03;;;;;;;15.43;11.88;;;15.00;99.90;;;;;;4830233;29;20038;-92
2023/05/11 11:11:38;;;;;;;13.85;11.13;;;15.10;99.90;;;;;;4818020;29;20490;-92
2023/05/11 11:14:05;;;;;;;16.25;12.15;;;15.10;99.90;;;;;;4825610;29;20045;-91
2023/05/11 11:16:34;;;;;;;18.15;13.73;;;15.20;99.90;;;;;;4836449;29;20049;-92
2023/05/11 11:19:27;;;;;;;15.90;12.25;;;15.30;99.90;;;;;;4839465;29;20086;-91
2023/05/11 11:21:53;;;;;;;;;;;15.30;99.90;;;;;;4824736;29;20061;-92
2023/05/11 11:24:37;;;;;;;16.88;12.65;;;15.40;99.90;;;;;;4831050;29;19925;-91
2023/05/11 11:27:07;;;;;;;14.65;11.23;;;15.40;99.90;;;;;;4826590;29;20051;-93
2023/05/11 11:29:36;;;;;;;13.80;11.30;;;15.50;99.90;;;;;;4826985;29;20065;-93
2023/05/11 11:32:28;;;;;;;15.82;11.85;;;15.50;99.90;;;;;;4822389;29;20068;-91
2023/05/11 11:34:54;;;;;;;13.13;11.07;;;15.50;99.90;;;;;;4825454;29;20060;-86
2023/05/11 11:37:21;;;;;;;12.77;11.18;;;15.70;99.90;;;;;;4835356;29;20043;-87
2023/05/11 11:39:48;;;;;;;13.52;10.70;;;15.70;99.90;;;;;;4826800;29;20062;-87
2023/05/11 11:42:29;;;;;;;15.35;10.80;;;15.70;99.90;;;;;;4842224;29;20054;-86
2023/05/11 11:45:26;;;;;;;14.75;10.77;;;15.80;99.90;;;;;;4838908;29;20099;-89
2023/05/11 11:48:12;;;;;;;12.18;9.82;;;15.80;99.90;;;;;;4823622;29;20058;-92
2023/05/11 11:50:42;;;;;;;11.93;9.70;;;15.80;99.90;;;;;;4825458;29;20054;-92
2023/05/11 11:53:31;;;;;;;13.90;10.32;;;15.90;99.90;;;;;;4828194;29;20045;-91
2023/05/11 11:55:56;;;;;;;13.10;9.07;;;16.00;99.90;;;;;;4810948;29;20599;-91
2023/05/11 11:58:41;;;;;;;12.77;9.93;;;16.00;99.90;;;;;;4806509;29;20130;-91
2023/05/11 12:01:08;;;;;;;13.13;9.98;;;16.00;99.90;;;;;;4825792;29;20106;-89
2023/05/11 12:03:38;;;;;;;12.65;8.80;;;16.10;99.90;;;;;;4818574;29;20050;-91
2023/05/11 12:06:23;;;;;;;11.90;8.77;;;16.20;99.90;;;;;;4821471;29;20062;-92
2023/05/11 12:08:49;;;;;;;10.05;8.30;;;16.20;99.90;;;;;;4820690;29;20046;-88
2023/05/11 12:11:16;;;;;;;12.07;8.98;;;16.30;99.90;;;;;;4813516;29;20043;-90
2023/05/11 12:13:42;;;;;;;10.77;8.50;;;16.30;99.90;;;;;;4807315;29;20070;-91
2023/05/11 12:16:12;;;;;;;11.05;8.45;;;16.40;99.90;;;;;;4809151;29;20039;-92
2023/05/11 12:18:38;;;;;;;10.40;8.43;;;16.40;99.90;;;;;;4825259;29;20053;-90
2023/05/11 12:21:04;;;;;;;11.40;8.27;;;16.50;99.90;;;;;;4824369;29;20065;-91
2023/05/11 12:23:30;;;;;;;11.25;8.55;;;16.50;99.90;;;;;;4825877;29;20038;-90
2023/05/11 12:26:06;;;;;;;9.52;7.13;;;16.50;99.90;;;;;;4823942;29;20586;-89
2023/05/11 12:28:32;;;;;;;11.07;7.30;;;16.60;99.90;;;;;;4824160;29;20050;-90
2023/05/11 12:30:58;;;;;;;11.30;8.32;;;16.70;99.90;;;;;;4812893;29;20121;-91
2023/05/11 12:33:24;;;;;;;11.18;6.32;;;16.70;99.90;;;;;;4820594;29;20448;-91
2023/05/11 12:35:53;;;;;;;11.73;6.82;;;16.70;99.90;;;;;;4827939;29;20042;-90
2023/05/11 12:38:20;;;;;;;11.90;6.90;;;16.80;99.90;;;;;;4834342;29;20380;-90
2023/05/11 12:40:49;;;;;;;10.75;6.00;;;16.80;99.90;;;;;;4830964;29;20053;-88
2023/05/11 12:43:20;;;;;;;11.60;7.75;;;16.90;99.90;;;;;;4838388;29;20042;-91
2023/05/11 12:45:45;;;;;;;10.63;5.90;;;16.90;99.90;;;;;;4836617;29;20050;-91
2023/05/11 12:48:15;;;;;;;9.27;5.45;;;17.00;99.90;;;;;;4826074;29;20054;-92
2023/05/11 12:50:45;;;;;;;8.68;5.65;;;17.00;99.90;;;;;;4815057;29;20055;-93
2023/05/11 12:53:31;;;;;;;8.90;5.35;;;17.00;99.90;;;;;;4819243;29;20513;-93
2023/05/11 12:55:58;;;;;;;8.80;5.40;;;17.10;99.90;;;;;;4811307;29;20096;-93
2023/05/11 12:58:24;;;;;;;7.80;4.38;;;17.10;99.90;;;;;;4805808;29;20046;-92
2023/05/11 13:00:58;;;;;;;5.45;2.50;;;17.20;99.90;;;;;;4821264;29;20054;-92
2023/05/11 13:03:33;;;;;;;5.00;2.80;;;17.10;99.90;;;;;;4824791;29;20053;-92
2023/05/11 13:06:10;;;;;;;6.65;3.53;;;17.20;99.90;;;;;;4824613;29;20123;-93